Time,TemperatureF,DewpointF,PressureIn,WindDirection,WindDirectionDegrees,WindSpeedMPH,WindSpeedGustMPH,Humidity,HourlyPrecipIn,Conditions,Clouds,dailyrainin,SolarRadiationWatts/m^2,SoftwareType,DateUTC
2013-09-09 00:04:00,73.0,66.0,-100.00,NNW,348,4.0,7.0,78,0.00,,,0.00,0.000000,,2013-09-09 04:04:00,
2013-09-09 00:44:00,72.0,66.0,-100.00,NNW,341,4.0,5.0,82,0.00,,,0.00,0.000000,,2013-09-09 04:44:00,
2013-09-09 00:54:00,72.0,66.0,-100.00,NNW,341,4.0,5.0,82,0.00,,,0.00,0.000000,,2013-09-09 04:54:00,
2013-09-09 01:03:00,72.0,66.0,-100.00,NNW,341,4.0,5.0,82,0.00,,,0.00,0.000000,,2013-09-09 05:03:00,
2013-09-09 01:43:00,70.0,66.0,-100.00,NNW,341,5.0,6.0,87,0.00,,,0.00,0.000000,,2013-09-09 05:43:00,
2013-09-09 01:53:00,70.0,66.0,-100.00,NNW,341,5.0,6.0,87,0.00,,,0.00,0.000000,,2013-09-09 05:53:00,
2013-09-09 02:02:00,70.0,66.0,-100.00,NNW,341,5.0,6.0,87,0.00,,,0.00,0.000000,,2013-09-09 06:02:00,
2013-09-09 02:42:00,70.0,67.0,-100.00,North,355,5.0,7.0,91,0.00,,,0.00,0.000000,,2013-09-09 06:42:00,
2013-09-09 02:52:00,70.0,67.0,-100.00,North,355,5.0,7.0,91,0.00,,,0.00,0.000000,,2013-09-09 06:52:00,
2013-09-09 03:02:00,70.0,67.0,-100.00,North,355,5.0,7.0,91,0.00,,,0.00,0.000000,,2013-09-09 07:02:00,
2013-09-09 03:43:00,69.0,67.0,-100.00,North,351,6.0,7.0,94,0.00,,,0.00,0.000000,,2013-09-09 07:43:00,
2013-09-09 03:52:00,69.0,67.0,-100.00,North,351,6.0,7.0,94,0.00,,,0.00,0.000000,,2013-09-09 07:52:00,
2013-09-09 04:02:00,69.0,67.0,-100.00,North,351,6.0,7.0,94,0.00,,,0.00,0.000000,,2013-09-09 08:02:00,
2013-09-09 04:43:00,69.0,68.0,-100.00,NNW,347,5.0,7.0,95,0.00,,,0.00,0.000000,,2013-09-09 08:43:00,
2013-09-09 04:52:00,69.0,68.0,-100.00,NNW,347,5.0,7.0,95,0.00,,,0.00,0.000000,,2013-09-09 08:52:00,
2013-09-09 05:02:00,69.0,68.0,-100.00,NNW,347,5.0,7.0,95,0.00,,,0.00,0.000000,,2013-09-09 09:02:00,
2013-09-09 05:43:00,68.0,67.0,-100.00,NNW,333,4.0,6.0,97,0.00,,,0.00,0.000000,,2013-09-09 09:43:00,
2013-09-09 05:54:00,68.0,67.0,-100.00,NNW,333,4.0,6.0,97,0.00,,,0.00,0.000000,,2013-09-09 09:54:00,
2013-09-09 06:03:00,68.0,67.0,-100.00,NNW,333,4.0,6.0,97,0.00,,,0.00,0.000000,,2013-09-09 10:03:00,
2013-09-09 06:43:00,67.0,66.0,-100.00,NNW,345,5.0,6.0,98,0.00,,,0.00,0.000000,,2013-09-09 10:43:00,
2013-09-09 06:53:00,67.0,66.0,-100.00,NNW,345,5.0,6.0,98,0.00,,,0.00,0.000000,,2013-09-09 10:53:00,
2013-09-09 07:02:00,67.0,66.0,-100.00,NNW,345,5.0,6.0,98,0.00,,,0.00,0.000000,,2013-09-09 11:02:00,
2013-09-09 07:42:00,67.0,66.0,-100.00,NNW,342,4.0,6.0,98,0.00,,,0.00,0.000000,,2013-09-09 11:42:00,
2013-09-09 07:52:00,67.0,66.0,-100.00,NNW,342,4.0,6.0,98,0.00,,,0.00,0.000000,,2013-09-09 11:52:00,
2013-09-09 08:02:00,67.0,66.0,-100.00,NNW,342,4.0,6.0,98,0.00,,,0.00,0.000000,,2013-09-09 12:02:00,
2013-09-09 08:42:00,67.0,66.0,-100.00,NNW,335,5.0,6.0,98,0.00,,,0.00,23.000000,,2013-09-09 12:42:00,
2013-09-09 08:52:00,67.0,66.0,-100.00,NNW,335,5.0,6.0,98,0.00,,,0.00,23.000000,,2013-09-09 12:52:00,
2013-09-09 09:01:00,67.0,66.0,-100.00,NNW,335,5.0,6.0,98,0.00,,,0.00,23.000000,,2013-09-09 13:01:00,
2013-09-09 09:42:00,72.0,68.0,-100.00,NNW,334,4.0,7.0,88,0.00,,,0.00,206.000000,,2013-09-09 13:42:00,
2013-09-09 09:52:00,72.0,68.0,-100.00,NNW,334,4.0,7.0,88,0.00,,,0.00,206.000000,,2013-09-09 13:52:00,
2013-09-09 10:02:00,72.0,68.0,-100.00,NNW,334,4.0,7.0,88,0.00,,,0.00,206.000000,,2013-09-09 14:02:00,
2013-09-09 10:42:00,77.0,68.0,-100.00,NNW,338,4.0,7.0,75,0.00,,,0.00,446.000000,,2013-09-09 14:42:00,
2013-09-09 10:52:00,77.0,68.0,-100.00,NNW,338,4.0,7.0,75,0.00,,,0.00,446.000000,,2013-09-09 14:52:00,
2013-09-09 11:02:00,77.0,68.0,-100.00,NNW,338,4.0,7.0,75,0.00,,,0.00,446.000000,,2013-09-09 15:02:00,
2013-09-09 11:43:00,83.0,70.0,-100.00,NNW,344,5.0,8.0,65,0.00,,,0.00,670.000000,,2013-09-09 15:43:00,
2013-09-09 11:53:00,83.0,70.0,-100.00,NNW,344,5.0,8.0,65,0.00,,,0.00,670.000000,,2013-09-09 15:53:00,
2013-09-09 12:04:00,83.0,70.0,-100.00,NNW,344,5.0,8.0,65,0.00,,,0.00,670.000000,,2013-09-09 16:04:00,
2013-09-09 12:44:00,85.0,69.0,-100.00,NNW,343,6.0,10.0,58,0.00,,,0.00,834.000000,,2013-09-09 16:44:00,
2013-09-09 12:54:00,85.0,69.0,-100.00,NNW,343,6.0,10.0,58,0.00,,,0.00,834.000000,,2013-09-09 16:54:00,
2013-09-09 13:03:00,85.0,69.0,-100.00,NNW,343,6.0,10.0,58,0.00,,,0.00,834.000000,,2013-09-09 17:03:00,
2013-09-09 13:43:00,88.0,66.0,-100.00,NNW,336,5.0,12.0,49,0.00,,,0.00,959.000000,,2013-09-09 17:43:00,
2013-09-09 13:53:00,88.0,66.0,-100.00,NNW,336,5.0,12.0,49,0.00,,,0.00,959.000000,,2013-09-09 17:53:00,
2013-09-09 14:02:00,88.0,66.0,-100.00,NNW,336,5.0,12.0,49,0.00,,,0.00,959.000000,,2013-09-09 18:02:00,
2013-09-09 14:42:00,90.0,69.0,-100.00,NNW,340,5.0,10.0,50,0.00,,,0.00,994.000000,,2013-09-09 18:42:00,
2013-09-09 15:43:00,89.0,67.0,-100.00,NNW,346,5.0,10.0,49,0.00,,,0.00,817.000000,,2013-09-09 19:43:00,
2013-09-09 15:52:00,89.0,67.0,-100.00,NNW,346,5.0,10.0,49,0.00,,,0.00,817.000000,,2013-09-09 19:52:00,
2013-09-09 16:03:00,89.0,67.0,-100.00,NNW,346,5.0,10.0,49,0.00,,,0.00,817.000000,,2013-09-09 20:03:00,
2013-09-09 16:42:00,91.0,70.0,-100.00,NNW,336,4.0,9.0,50,0.00,,,-99.99,850.000000,,2013-09-09 20:42:00,
2013-09-09 16:53:00,91.0,70.0,-100.00,NNW,336,4.0,9.0,50,0.00,,,-99.99,850.000000,,2013-09-09 20:53:00,
2013-09-09 17:02:00,91.0,70.0,-100.00,NNW,336,4.0,9.0,50,0.00,,,-99.99,850.000000,,2013-09-09 21:02:00,
2013-09-09 17:44:00,90.0,69.0,-100.00,NNW,343,4.0,9.0,50,0.00,,,0.00,710.000000,,2013-09-09 21:44:00,
2013-09-09 17:54:00,90.0,69.0,-100.00,NNW,343,4.0,9.0,50,0.00,,,0.00,710.000000,,2013-09-09 21:54:00,
2013-09-09 18:05:00,90.0,69.0,-100.00,NNW,343,4.0,9.0,50,0.00,,,0.00,710.000000,,2013-09-09 22:05:00,
2013-09-09 18:43:00,84.0,69.0,-100.00,NNW,329,4.0,10.0,61,0.00,,,0.00,172.000000,,2013-09-09 22:43:00,
2013-09-09 18:54:00,84.0,69.0,-100.00,NNW,329,4.0,10.0,61,0.00,,,0.00,172.000000,,2013-09-09 22:54:00,
2013-09-09 19:03:00,84.0,69.0,-100.00,NNW,329,4.0,10.0,61,0.00,,,0.00,172.000000,,2013-09-09 23:03:00,
2013-09-09 19:43:00,81.0,69.0,-100.00,NNW,337,3.0,8.0,67,0.00,,,0.00,53.000000,,2013-09-09 23:43:00,
2013-09-09 19:52:00,81.0,69.0,-100.00,NNW,337,3.0,8.0,67,0.00,,,0.00,53.000000,,2013-09-09 23:52:00,
2013-09-09 20:02:00,81.0,69.0,-100.00,NNW,337,3.0,8.0,67,0.00,,,0.00,53.000000,,2013-09-10 00:02:00,
2013-09-09 20:42:00,78.0,69.0,-100.00,NNW,348,4.0,6.0,75,0.00,,,0.00,13.000000,,2013-09-10 00:42:00,
2013-09-09 20:52:00,78.0,69.0,-100.00,NNW,348,4.0,6.0,75,0.00,,,0.00,13.000000,,2013-09-10 00:52:00,
2013-09-09 21:01:00,78.0,69.0,-100.00,NNW,348,4.0,6.0,75,0.00,,,0.00,13.000000,,2013-09-10 01:01:00,
2013-09-09 21:42:00,76.0,69.0,-100.00,NNW,348,4.0,6.0,80,0.00,,,0.00,0.000000,,2013-09-10 01:42:00,
2013-09-09 21:53:00,76.0,69.0,-100.00,NNW,348,4.0,6.0,80,0.00,,,0.00,0.000000,,2013-09-10 01:53:00,
2013-09-09 22:03:00,76.0,69.0,-100.00,NNW,348,4.0,6.0,80,0.00,,,0.00,0.000000,,2013-09-10 02:03:00,
2013-09-09 22:42:00,75.0,69.0,-100.00,NNW,346,4.0,7.0,82,0.00,,,0.00,0.000000,,2013-09-10 02:42:00,
2013-09-09 22:52:00,75.0,69.0,-100.00,NNW,346,4.0,7.0,82,0.00,,,0.00,0.000000,,2013-09-10 02:52:00,
2013-09-09 23:02:00,75.0,69.0,-100.00,NNW,346,4.0,7.0,82,0.00,,,0.00,0.000000,,2013-09-10 03:02:00,
2013-09-09 23:44:00,74.0,70.0,-100.00,NNW,347,6.0,9.0,86,0.00,,,0.00,0.000000,,2013-09-10 03:44:00,
2013-09-09 23:55:00,74.0,70.0,-100.00,NNW,347,6.0,9.0,86,0.00,,,0.00,0.000000,,2013-09-10 03:55:00,